createdAt,value
2019-02-23T00:02:24.859Z,-0.10
2019-02-23T00:04:53.506Z,-0.10
2019-02-23T00:07:22.113Z,-0.20
2019-02-23T00:09:50.725Z,-0.30
2019-02-23T00:12:19.356Z,-0.20
2019-02-23T00:14:48.292Z,-0.20
2019-02-23T00:17:17.253Z,-0.20
2019-02-23T00:19:45.888Z,-0.20
2019-02-23T00:22:14.485Z,-0.20
2019-02-23T00:24:43.069Z,-0.30
2019-02-23T00:27:12.085Z,-0.20
2019-02-23T00:29:40.749Z,-0.20
2019-02-23T00:32:09.424Z,-0.20
2019-02-23T00:34:38.071Z,-0.20
2019-02-23T00:37:06.675Z,-0.20
2019-02-23T00:39:35.261Z,-0.20
2019-02-23T00:42:03.873Z,-0.20
2019-02-23T00:44:32.459Z,-0.30
2019-02-23T00:47:01.059Z,-0.30
2019-02-23T00:49:36.223Z,-0.30
2019-02-23T00:51:59.934Z,-0.30
2019-02-23T00:54:28.513Z,-0.30
2019-02-23T00:56:57.137Z,-0.30
2019-02-23T00:59:25.786Z,-0.30
2019-02-23T01:01:55.116Z,-0.30
2019-02-23T01:04:23.685Z,-0.30
2019-02-23T01:06:52.296Z,-0.30
2019-02-23T01:09:20.919Z,-0.40
2019-02-23T01:11:50.796Z,-0.40
2019-02-23T01:14:19.379Z,-0.40
2019-02-23T01:16:47.987Z,-0.40
2019-02-23T01:19:17.230Z,-0.40
2019-02-23T01:21:45.862Z,-0.50
2019-02-23T01:24:14.447Z,-0.40
2019-02-23T01:26:43.066Z,-0.50
2019-02-23T01:29:12.021Z,-0.50
2019-02-23T01:31:40.671Z,-0.50
2019-02-23T01:34:09.308Z,-0.60
2019-02-23T01:36:37.914Z,-0.60
2019-02-23T01:39:07.028Z,-0.60
2019-02-23T01:41:35.639Z,-0.70
2019-02-23T01:44:04.672Z,-0.70
2019-02-23T01:46:33.293Z,-0.70
2019-02-23T01:49:01.953Z,-0.70
2019-02-23T01:51:30.568Z,-0.70
2019-02-23T01:53:59.173Z,-0.70
2019-02-23T01:56:27.787Z,-0.80
2019-02-23T01:58:56.427Z,-0.80
2019-02-23T02:01:25.684Z,-0.80
2019-02-23T02:03:54.307Z,-0.80
2019-02-23T02:06:23.282Z,-0.80
2019-02-23T02:08:51.954Z,-0.80
2019-02-23T02:11:23.057Z,-0.90
2019-02-23T02:13:51.646Z,-0.90
2019-02-23T02:16:20.242Z,-0.90
2019-02-23T02:18:48.856Z,-1.00
2019-02-23T02:21:17.447Z,-1.00
2019-02-23T02:23:46.111Z,-1.00
2019-02-23T02:26:14.676Z,-1.10
2019-02-23T02:28:43.279Z,-1.10
2019-02-23T02:31:11.864Z,-1.10
2019-02-23T02:34:08.719Z,-1.10
2019-02-23T02:36:37.313Z,-1.10
2019-02-23T02:39:09.017Z,-1.10
2019-02-23T02:41:37.579Z,-1.10
2019-02-23T02:44:06.191Z,-1.20
2019-02-23T02:46:34.779Z,-1.20
2019-02-23T02:49:03.636Z,-1.20
2019-02-23T02:51:32.237Z,-1.30
2019-02-23T02:54:00.848Z,-1.30
2019-02-23T02:56:29.416Z,-2.00
2019-02-23T02:58:58.028Z,-1.40
2019-02-23T03:01:26.730Z,-1.40
2019-02-23T03:03:55.329Z,-1.40
2019-02-23T03:06:23.914Z,-1.40
2019-02-23T03:08:52.524Z,-1.40
2019-02-23T03:11:21.122Z,-1.50
2019-02-23T03:13:50.171Z,-1.50
2019-02-23T03:16:18.727Z,-1.50
2019-02-23T03:18:47.337Z,-1.50
2019-02-23T03:21:16.409Z,-1.50
2019-02-23T03:23:45.675Z,-1.50
2019-02-23T03:26:14.568Z,-1.50
2019-02-23T03:28:43.575Z,-1.50
2019-02-23T03:31:13.342Z,-1.50
2019-02-23T03:33:41.959Z,-1.50
2019-02-23T03:36:10.606Z,-1.50
2019-02-23T03:38:40.531Z,-1.60
2019-02-23T03:41:09.116Z,-1.50
2019-02-23T03:43:37.744Z,-1.60
2019-02-23T03:46:06.328Z,-1.60
2019-02-23T03:48:35.513Z,-1.60
2019-02-23T03:51:04.126Z,-1.50
2019-02-23T03:53:33.230Z,-1.60
2019-02-23T03:56:02.192Z,-1.50
2019-02-23T03:58:30.801Z,-1.50
2019-02-23T04:00:59.375Z,-1.50
2019-02-23T04:03:28.020Z,-1.50
2019-02-23T04:05:56.612Z,-1.60
2019-02-23T04:08:25.258Z,-1.50
2019-02-23T04:10:53.858Z,-1.50
2019-02-23T04:13:22.452Z,-1.40
2019-02-23T04:15:51.041Z,-1.40
2019-02-23T04:18:19.652Z,-1.50
2019-02-23T04:20:48.248Z,-1.50
2019-02-23T04:23:16.868Z,-1.40
2019-02-23T04:25:45.483Z,-1.40
2019-02-23T04:28:14.097Z,-1.40
2019-02-23T04:30:43.117Z,-1.30
2019-02-23T04:33:11.719Z,-1.20
2019-02-23T04:35:40.303Z,-1.20
2019-02-23T04:38:09.212Z,-1.20
2019-02-23T04:40:37.805Z,-1.10
2019-02-23T04:43:07.938Z,-1.10
2019-02-23T04:45:36.529Z,-1.10
2019-02-23T04:48:05.134Z,-1.10
2019-02-23T04:50:33.769Z,-1.10
2019-02-23T04:53:02.312Z,-1.20
2019-02-23T04:55:31.206Z,-1.20
2019-02-23T04:57:59.816Z,-1.10
2019-02-23T05:00:28.396Z,-1.20
2019-02-23T05:02:57.308Z,-1.20
2019-02-23T05:05:25.914Z,-1.20
2019-02-23T05:07:54.576Z,-1.20
2019-02-23T05:10:23.545Z,-1.30
2019-02-23T05:12:52.140Z,-1.30
2019-02-23T05:15:21.102Z,-1.30
2019-02-23T05:17:49.706Z,-1.30
2019-02-23T05:20:18.345Z,-1.30
2019-02-23T05:22:46.888Z,-1.40
2019-02-23T05:25:15.485Z,-1.30
2019-02-23T05:27:44.068Z,-1.30
2019-02-23T05:30:13.107Z,-1.30
2019-02-23T05:32:41.693Z,-1.40
2019-02-23T05:35:12.135Z,-1.40
2019-02-23T05:37:40.727Z,-1.40
2019-02-23T05:40:11.603Z,-1.40
2019-02-23T05:42:40.178Z,-1.40
2019-02-23T05:45:11.184Z,-1.40
2019-02-23T05:47:39.777Z,-1.50
2019-02-23T05:50:09.658Z,-1.50
2019-02-23T05:52:38.231Z,-1.50
2019-02-23T05:55:06.927Z,-1.60
2019-02-23T05:57:35.528Z,-1.60
2019-02-23T06:00:06.439Z,-1.60
2019-02-23T06:02:35.021Z,-1.60
2019-02-23T06:05:03.819Z,-1.60
2019-02-23T06:07:32.974Z,-1.60
2019-02-23T06:10:01.623Z,-1.60
2019-02-23T06:12:30.176Z,-1.60
2019-02-23T06:14:58.803Z,-1.60
2019-02-23T06:17:27.393Z,-3.20
2019-02-23T06:19:55.999Z,-1.60
2019-02-23T06:22:24.574Z,-1.60
2019-02-23T06:24:53.204Z,-1.50
2019-02-23T06:27:21.782Z,-1.50
2019-02-23T06:29:50.405Z,-1.50
2019-02-23T06:32:19.401Z,-1.50
2019-02-23T06:34:48.057Z,-1.50
2019-02-23T06:37:16.652Z,-1.40
2019-02-23T06:39:45.265Z,-1.50
2019-02-23T06:42:13.843Z,-1.50
2019-02-23T06:44:42.453Z,-1.50
2019-02-23T06:47:11.213Z,-1.50
2019-02-23T06:49:39.827Z,-1.40
2019-02-23T06:52:08.472Z,-1.40
2019-02-23T06:54:37.118Z,-1.40
2019-02-23T06:57:05.697Z,-1.40
2019-02-23T06:59:34.296Z,-1.40
2019-02-23T07:02:03.154Z,-1.50
2019-02-23T07:04:32.137Z,-1.50
2019-02-23T07:07:00.710Z,-1.50
2019-02-23T07:09:29.319Z,-1.40
2019-02-23T07:11:58.186Z,-1.30
2019-02-23T07:14:26.809Z,-1.30
2019-02-23T07:16:55.397Z,-1.20
2019-02-23T07:19:23.996Z,-1.10
2019-02-23T07:21:52.576Z,-1.10
2019-02-23T07:24:21.189Z,-1.00
2019-02-23T07:26:49.774Z,-0.90
2019-02-23T07:29:18.562Z,-0.90
2019-02-23T07:31:47.132Z,-0.90
2019-02-23T07:34:16.304Z,-0.80
2019-02-23T07:36:45.164Z,-0.70
2019-02-23T07:39:13.767Z,-0.70
2019-02-23T07:41:42.355Z,-0.70
2019-02-23T07:44:10.969Z,-0.70
2019-02-23T07:46:39.951Z,-0.20
2019-02-23T07:49:08.535Z,-0.90
2019-02-23T07:51:37.120Z,-0.90
2019-02-23T07:54:05.730Z,-0.80
2019-02-23T07:56:35.144Z,-0.90
2019-02-23T07:59:03.926Z,-0.80
2019-02-23T08:01:32.496Z,-0.80
2019-02-23T08:04:01.896Z,-0.80
2019-02-23T08:06:32.465Z,-0.80
2019-02-23T08:09:01.063Z,1.20
2019-02-23T08:11:29.667Z,-0.60
2019-02-23T08:13:58.272Z,-0.30
2019-02-23T08:16:26.866Z,0.10
2019-02-23T08:18:55.421Z,0.50
2019-02-23T08:21:24.033Z,0.70
2019-02-23T08:23:52.595Z,0.80
2019-02-23T08:26:21.190Z,0.80
2019-02-23T08:28:49.759Z,1.20
2019-02-23T08:31:18.368Z,1.70
2019-02-23T08:33:47.130Z,2.10
2019-02-23T08:36:15.748Z,2.30
2019-02-23T08:38:44.326Z,2.70
2019-02-23T08:41:12.918Z,3.00
2019-02-23T08:43:41.490Z,3.10
2019-02-23T08:46:10.108Z,3.20
2019-02-23T08:48:38.658Z,3.20
2019-02-23T08:51:07.269Z,3.50
2019-02-23T08:53:35.836Z,3.60
2019-02-23T08:56:04.447Z,4.00
2019-02-23T08:58:33.033Z,4.30
2019-02-23T09:01:01.651Z,4.60
2019-02-23T09:03:30.212Z,4.60
2019-02-23T09:05:58.853Z,4.30
2019-02-23T09:08:27.419Z,4.30
2019-02-23T09:10:56.018Z,4.50
2019-02-23T09:13:24.594Z,4.70
2019-02-23T09:15:53.192Z,5.20
2019-02-23T09:18:21.766Z,5.30
2019-02-23T09:20:51.963Z,5.00
2019-02-23T09:23:20.564Z,5.10
2019-02-23T09:25:49.260Z,5.40
2019-02-23T09:28:17.865Z,5.60
2019-02-23T09:30:46.455Z,5.70
2019-02-23T09:33:15.041Z,6.00
2019-02-23T09:35:43.675Z,5.90
2019-02-23T09:38:12.328Z,6.00
2019-02-23T09:40:40.905Z,5.90
2019-02-23T09:43:09.804Z,6.40
2019-02-23T09:45:38.410Z,6.60
2019-02-23T09:48:06.988Z,6.80
2019-02-23T09:50:35.608Z,6.80
2019-02-23T09:53:11.306Z,7.00
2019-02-23T09:55:34.429Z,7.20
2019-02-23T09:58:03.016Z,7.50
2019-02-23T10:00:32.733Z,7.70
2019-02-23T10:03:01.332Z,7.70
2019-02-23T10:05:31.131Z,7.00
2019-02-23T10:08:00.594Z,7.40
2019-02-23T10:10:29.181Z,7.70
2019-02-23T10:12:57.795Z,7.80
2019-02-23T10:15:26.372Z,5.90
2019-02-23T10:17:54.981Z,7.50
2019-02-23T10:20:23.584Z,7.60
2019-02-23T10:22:52.441Z,7.60
2019-02-23T10:25:21.028Z,7.50
2019-02-23T10:27:49.633Z,7.70
2019-02-23T10:30:18.201Z,8.00
2019-02-23T10:32:46.807Z,8.10
2019-02-23T10:35:15.404Z,8.10
2019-02-23T10:37:44.015Z,8.00
2019-02-23T10:40:13.254Z,7.70
2019-02-23T10:42:44.015Z,7.70
2019-02-23T10:45:13.735Z,8.30
2019-02-23T10:47:42.358Z,8.60
2019-02-23T10:50:12.574Z,8.70
2019-02-23T10:52:41.188Z,8.50
2019-02-23T10:55:11.917Z,8.60
2019-02-23T10:57:40.851Z,9.20
2019-02-23T11:00:14.156Z,9.70
2019-02-23T11:02:42.747Z,10.30
2019-02-23T11:05:11.480Z,10.20
2019-02-23T11:07:40.372Z,10.50
2019-02-23T11:10:10.121Z,10.70
2019-02-23T11:12:38.732Z,10.60
2019-02-23T11:15:15.647Z,10.60
2019-02-23T11:17:44.691Z,10.70
2019-02-23T11:20:13.944Z,11.20
2019-02-23T11:22:42.590Z,11.20
2019-02-23T11:25:12.079Z,11.70
2019-02-23T11:27:40.757Z,11.90
2019-02-23T11:30:14.261Z,12.10
2019-02-23T11:32:42.878Z,12.30
2019-02-23T11:35:13.690Z,12.70
2019-02-23T11:37:42.297Z,12.60
2019-02-23T11:40:12.134Z,12.60
2019-02-23T11:42:40.763Z,13.00
2019-02-23T11:45:10.864Z,13.30
2019-02-23T11:47:39.480Z,13.30
2019-02-23T11:50:12.911Z,12.70
2019-02-23T11:52:41.636Z,12.30
2019-02-23T11:55:10.415Z,12.70
2019-02-23T11:57:40.313Z,12.70
2019-02-23T12:00:13.375Z,13.20
2019-02-23T12:02:52.015Z,13.30
2019-02-23T12:05:12.282Z,13.30
2019-02-23T12:07:40.891Z,13.00
2019-02-23T12:10:12.539Z,12.70
2019-02-23T12:12:41.420Z,12.70
2019-02-23T12:15:10.492Z,13.00
2019-02-23T12:17:39.090Z,13.00
2019-02-23T12:20:09.654Z,12.80
2019-02-23T12:22:38.264Z,13.00
2019-02-23T12:25:07.839Z,13.30
2019-02-23T12:27:36.435Z,12.80
2019-02-23T12:30:10.125Z,12.30
2019-02-23T12:32:38.719Z,12.80
2019-02-23T12:35:09.676Z,13.20
2019-02-23T12:37:38.267Z,12.90
2019-02-23T12:40:08.527Z,12.60
2019-02-23T12:42:37.152Z,12.90
2019-02-23T12:45:08.351Z,12.90
2019-02-23T12:47:37.083Z,12.90
2019-02-23T12:50:08.897Z,12.90
2019-02-23T12:52:37.472Z,12.80
2019-02-23T12:55:08.902Z,12.60
2019-02-23T12:57:37.823Z,13.10
2019-02-23T13:00:12.622Z,12.70
2019-02-23T13:02:42.432Z,12.70
2019-02-23T13:05:11.714Z,12.90
2019-02-23T13:07:40.654Z,12.40
2019-02-23T13:10:11.638Z,11.60
2019-02-23T13:12:58.237Z,11.10
2019-02-23T13:15:35.792Z,10.60
2019-02-23T13:18:19.300Z,10.30
2019-02-23T13:20:53.477Z,10.30
2019-02-23T13:23:43.197Z,10.20
2019-02-23T13:26:40.790Z,10.30
2019-02-23T13:29:44.387Z,10.20
2019-02-23T13:32:28.067Z,10.40
2019-02-23T13:35:11.552Z,10.10
2019-02-23T13:37:55.083Z,9.80
2019-02-23T13:41:00.086Z,9.90
2019-02-23T13:43:44.034Z,10.00
2019-02-23T13:46:18.610Z,10.00
2019-02-23T13:48:59.707Z,10.10
2019-02-23T13:51:34.268Z,10.50
2019-02-23T13:54:11.759Z,10.60
2019-02-23T13:57:07.646Z,10.80
2019-02-23T13:59:51.182Z,10.80
2019-02-23T14:02:31.086Z,10.50
2019-02-23T14:05:21.095Z,10.60
2019-02-23T14:08:01.494Z,10.60
2019-02-23T14:10:45.512Z,10.80
2019-02-23T14:13:35.140Z,10.70
2019-02-23T14:16:09.862Z,10.60
2019-02-23T14:18:42.462Z,10.40
2019-02-23T14:21:37.543Z,10.10
2019-02-23T14:24:24.452Z,10.30
2019-02-23T14:27:05.000Z,10.30
2019-02-23T14:29:48.170Z,10.30
2019-02-23T14:32:39.748Z,10.20
2019-02-23T14:35:34.724Z,10.10
2019-02-23T14:38:06.394Z,9.80
2019-02-23T14:40:43.502Z,9.80
2019-02-23T14:43:27.140Z,9.80
2019-02-23T14:46:27.451Z,9.50
2019-02-23T14:48:59.113Z,9.30
2019-02-23T14:51:42.911Z,9.00
2019-02-23T14:54:14.558Z,8.80
2019-02-23T14:57:02.850Z,9.00
2019-02-23T14:59:53.044Z,8.90
2019-02-23T15:02:41.244Z,8.90
2019-02-23T15:05:27.827Z,8.80
2019-02-23T15:08:08.334Z,9.00
2019-02-23T15:11:14.780Z,9.20
2019-02-23T15:13:58.534Z,9.60
2019-02-23T15:16:44.991Z,10.10
2019-02-23T15:19:46.885Z,10.00
2019-02-23T15:22:36.679Z,9.50
2019-02-23T15:25:17.617Z,9.20
2019-02-23T15:27:57.444Z,8.80
2019-02-23T15:30:43.816Z,8.50
2019-02-23T15:33:21.603Z,8.30
2019-02-23T15:35:59.556Z,8.10
2019-02-23T15:38:54.705Z,8.00
2019-02-23T15:41:32.098Z,8.20
2019-02-23T15:44:24.271Z,8.20
2019-02-23T15:47:04.712Z,8.30
2019-02-23T15:49:33.618Z,8.30
2019-02-23T15:52:03.357Z,8.10
2019-02-23T15:54:31.946Z,7.90
2019-02-23T15:57:00.564Z,7.90
2019-02-23T15:59:29.107Z,7.70
2019-02-23T16:01:57.683Z,7.70
2019-02-23T16:04:26.282Z,7.50
2019-02-23T16:06:55.438Z,7.50
2019-02-23T16:09:24.036Z,7.30
2019-02-23T16:11:52.620Z,7.20
2019-02-23T16:14:21.228Z,7.10
2019-02-23T16:16:49.849Z,6.90
2019-02-23T16:19:18.430Z,6.50
2019-02-23T16:21:47.084Z,6.40
2019-02-23T16:24:15.998Z,6.30
2019-02-23T16:26:44.860Z,6.20
2019-02-23T16:29:13.472Z,6.10
2019-02-23T16:31:42.427Z,6.00
2019-02-23T16:34:11.030Z,5.90
2019-02-23T16:36:39.631Z,5.90
2019-02-23T16:39:12.281Z,5.80
2019-02-23T16:41:40.918Z,5.70
2019-02-23T16:44:09.529Z,5.60
2019-02-23T16:46:38.126Z,5.50
2019-02-23T16:49:06.797Z,5.40
2019-02-23T16:51:35.374Z,5.20
2019-02-23T16:54:04.295Z,5.10
2019-02-23T16:56:32.935Z,5.10
2019-02-23T16:59:01.457Z,5.00
2019-02-23T17:01:30.072Z,5.00
2019-02-23T17:03:58.658Z,4.80
2019-02-23T17:06:27.303Z,4.70
2019-02-23T17:08:55.850Z,4.60
2019-02-23T17:11:24.466Z,4.50
2019-02-23T17:13:53.047Z,4.50
2019-02-23T17:16:23.924Z,4.40
2019-02-23T17:18:53.847Z,4.50
2019-02-23T17:21:22.397Z,4.50
2019-02-23T17:23:50.986Z,4.40
2019-02-23T17:26:19.599Z,4.50
2019-02-23T17:28:48.204Z,4.40
2019-02-23T17:31:16.791Z,4.30
2019-02-23T17:33:45.446Z,4.30
2019-02-23T17:36:14.006Z,4.20
2019-02-23T17:38:44.685Z,4.10
2019-02-23T17:41:12.864Z,4.20
2019-02-23T17:43:41.487Z,4.10
2019-02-23T17:46:10.135Z,4.00
2019-02-23T17:48:38.747Z,3.90
2019-02-23T17:51:07.990Z,3.80
2019-02-23T17:53:36.506Z,3.80
2019-02-23T17:56:12.097Z,3.70
2019-02-23T17:58:35.894Z,3.70
2019-02-23T18:01:06.006Z,3.60
2019-02-23T18:03:34.577Z,3.70
2019-02-23T18:06:03.185Z,3.60
2019-02-23T18:08:31.764Z,3.60
2019-02-23T18:11:00.589Z,3.60
2019-02-23T18:13:29.299Z,3.60
2019-02-23T18:15:57.907Z,3.60
2019-02-23T18:18:26.482Z,3.60
2019-02-23T18:20:56.280Z,3.50
2019-02-23T18:23:24.919Z,3.50
2019-02-23T18:25:54.695Z,3.50
2019-02-23T18:28:23.268Z,3.40
2019-02-23T18:30:51.912Z,3.40
2019-02-23T18:33:20.493Z,3.30
2019-02-23T18:35:50.670Z,3.20
2019-02-23T18:38:19.337Z,3.20
2019-02-23T18:40:49.581Z,3.20
2019-02-23T18:43:22.813Z,3.20
2019-02-23T18:45:51.746Z,3.20
2019-02-23T18:48:28.648Z,3.10
2019-02-23T18:50:57.586Z,3.10
2019-02-23T18:53:26.148Z,3.00
2019-02-23T18:56:00.761Z,3.00
2019-02-23T18:58:29.332Z,2.90
2019-02-23T19:00:58.900Z,2.90
2019-02-23T19:03:27.526Z,2.80
2019-02-23T19:05:56.142Z,2.80
2019-02-23T19:08:24.845Z,2.80
2019-02-23T19:10:56.149Z,2.70
2019-02-23T19:13:25.262Z,2.80
2019-02-23T19:15:53.919Z,2.80
2019-02-23T19:18:22.490Z,2.80
2019-02-23T19:20:51.174Z,2.70
2019-02-23T19:23:19.799Z,2.70
2019-02-23T19:25:48.469Z,2.60
2019-02-23T19:28:17.303Z,2.60
2019-02-23T19:30:45.890Z,2.60
2019-02-23T19:33:14.514Z,2.60
2019-02-23T19:35:43.115Z,2.60
2019-02-23T19:38:11.738Z,2.60
2019-02-23T19:40:40.319Z,2.60
2019-02-23T19:43:09.045Z,2.60
2019-02-23T19:45:37.641Z,2.50
2019-02-23T19:48:06.354Z,2.50
2019-02-23T19:50:38.707Z,2.40
2019-02-23T19:53:07.817Z,2.40
2019-02-23T19:55:36.428Z,2.40
2019-02-23T19:58:05.048Z,2.40
2019-02-23T20:00:33.748Z,2.30
2019-02-23T20:03:02.371Z,2.30
2019-02-23T20:05:31.546Z,2.30
2019-02-23T20:08:00.159Z,2.30
2019-02-23T20:10:30.025Z,2.40
2019-02-23T20:12:58.647Z,2.40
2019-02-23T20:15:27.271Z,2.40
2019-02-23T20:17:55.887Z,2.40
2019-02-23T20:20:24.555Z,2.40
2019-02-23T20:22:53.214Z,2.40
2019-02-23T20:25:21.807Z,2.40
2019-02-23T20:27:50.482Z,2.40
2019-02-23T20:30:19.124Z,2.50
2019-02-23T20:32:47.816Z,2.50
2019-02-23T20:35:16.404Z,2.50
2019-02-23T20:37:45.035Z,2.50
2019-02-23T20:40:13.622Z,2.50
2019-02-23T20:42:42.260Z,2.50
2019-02-23T20:45:10.960Z,2.50
2019-02-23T20:47:39.599Z,2.40
2019-02-23T20:50:10.192Z,2.40
2019-02-23T20:52:38.730Z,2.40
2019-02-23T20:55:08.708Z,2.40
2019-02-23T20:57:37.351Z,2.40
2019-02-23T21:00:08.705Z,2.40
2019-02-23T21:02:37.349Z,2.40
2019-02-23T21:05:09.328Z,2.30
2019-02-23T21:07:38.094Z,2.20
2019-02-23T21:10:08.986Z,2.20
2019-02-23T21:12:37.598Z,2.20
2019-02-23T21:15:08.639Z,2.20
2019-02-23T21:17:37.255Z,2.20
2019-02-23T21:20:09.077Z,2.10
2019-02-23T21:22:38.339Z,2.10
2019-02-23T21:25:08.952Z,2.10
2019-02-23T21:27:37.931Z,2.10
2019-02-23T21:30:10.828Z,2.10
2019-02-23T21:32:39.981Z,2.00
2019-02-23T21:35:10.386Z,2.00
2019-02-23T21:37:39.968Z,2.00
2019-02-23T21:40:09.811Z,2.00
2019-02-23T21:42:38.413Z,2.00
2019-02-23T21:45:09.269Z,2.00
2019-02-23T21:47:37.880Z,2.00
2019-02-23T21:50:12.295Z,1.90
2019-02-23T21:52:41.560Z,1.90
2019-02-23T21:55:10.157Z,1.90
2019-02-23T21:57:38.805Z,1.80
2019-02-23T22:00:09.317Z,1.80
2019-02-23T22:02:38.338Z,1.70
2019-02-23T22:05:12.364Z,1.70
2019-02-23T22:07:37.316Z,1.70
2019-02-23T22:10:08.352Z,1.70
2019-02-23T22:12:37.044Z,1.70
2019-02-23T22:15:06.843Z,1.70
2019-02-23T22:17:37.205Z,1.80
2019-02-23T22:20:08.000Z,1.80
2019-02-23T22:22:36.601Z,1.70
2019-02-23T22:25:06.171Z,1.70
2019-02-23T22:27:34.805Z,1.70
2019-02-23T22:30:03.538Z,1.70
2019-02-23T22:32:32.154Z,1.70
2019-02-23T22:35:00.941Z,1.70
2019-02-23T22:37:29.487Z,1.70
2019-02-23T22:39:59.647Z,1.80
2019-02-23T22:42:28.210Z,1.70
2019-02-23T22:44:56.834Z,1.70
2019-02-23T22:47:32.160Z,1.70
2019-02-23T22:50:00.823Z,1.70
2019-02-23T22:52:29.386Z,1.70
2019-02-23T22:54:58.272Z,1.60
2019-02-23T22:57:26.907Z,1.60
2019-02-23T22:59:55.484Z,1.60
2019-02-23T23:02:24.321Z,1.60
2019-02-23T23:04:53.024Z,1.60
2019-02-23T23:07:21.618Z,1.50
2019-02-23T23:09:50.227Z,1.50
2019-02-23T23:12:18.973Z,1.50
2019-02-23T23:14:47.572Z,1.50
2019-02-23T23:17:18.274Z,1.50
2019-02-23T23:19:49.554Z,1.50
2019-02-23T23:22:18.129Z,1.50
2019-02-23T23:24:48.388Z,1.50
2019-02-23T23:27:17.081Z,1.50
2019-02-23T23:29:48.556Z,1.50
2019-02-23T23:32:17.250Z,1.50
2019-02-23T23:34:47.139Z,1.40
2019-02-23T23:37:16.049Z,1.50
2019-02-23T23:39:44.622Z,1.40
2019-02-23T23:42:17.536Z,1.40
2019-02-23T23:44:46.456Z,1.40
2019-02-23T23:47:15.043Z,1.40
2019-02-23T23:49:43.638Z,1.40
2019-02-23T23:52:12.222Z,1.40
2019-02-23T23:54:40.840Z,1.40
2019-02-23T23:57:09.405Z,1.40
2019-02-23T23:59:38.052Z,1.40
